^^
Station Historical Data
Daily Summary for November 4, 2017 Units:  English    Metric   Both
« Previous Day
Next Day »
Daily Weekly Monthly Yearly Custom
  High: Low: Average:
Temperature: 55.3 °F 40.7 °F 47.6 °F
Dew Point: 44.3 °F 32.6 °F 37.5 °F
Humidity: 86% 44% 69%
Wind Speed: 3.0mph 0.0mph 0.5mph
Wind Gust: 13.0mph - -
Wind- - WSW
Pressure: 30.37 in 30.22 in -
Precipitation: 0.00 in    
Historical Graphs
 
 
Tabular Data for November 4, 2017
Time Temperature Dew Point Pressure Wind Wind Speed Wind Gust Humidity Rainfall Rate (Hourly) Conditions
00:09 49.3 °F 37.7 °F 30.22 in Calm   13.0 mph 64% 0.00 in CLR
00:19 49.0 °F 37.3 °F 30.23 in North 1.0 mph 6.0 mph 64% 0.00 in CLR
00:29 48.7 °F 37.1 °F 30.23 in NNW 1.0 mph 8.0 mph 64% 0.00 in CLR
00:39 48.5 °F 37.3 °F 30.23 in NNW 1.0 mph 10.0 mph 65% 0.00 in CLR
00:50 48.4 °F 37.1 °F 30.23 in North 2.0 mph 10.0 mph 65% 0.00 in CLR
01:00 48.1 °F 36.9 °F 30.24 in NNW 2.0 mph 7.0 mph 65% 0.00 in CLR
01:10 48.0 °F 36.8 °F 30.24 in NNW 3.0 mph 9.0 mph 65% 0.00 in CLR
01:20 47.9 °F 36.7 °F 30.24 in NNW 3.0 mph 10.0 mph 65% 0.00 in CLR
01:30 47.6 °F 36.8 °F 30.24 in NW 2.0 mph 9.0 mph 66% 0.00 in CLR
01:40 47.5 °F 36.7 °F 30.25 in NNW 2.0 mph 8.0 mph 66% 0.00 in CLR
01:50 47.2 °F 36.8 °F 30.24 in NNW 3.0 mph 6.0 mph 67% 0.00 in CLR
02:00 46.9 °F 37.2 °F 30.24 in Calm   5.0 mph 69% 0.00 in CLR
02:10 46.7 °F 37.1 °F 30.25 in North 1.0 mph 4.0 mph 69% 0.00 in CLR
02:20 46.8 °F 37.2 °F 30.25 in Calm   5.0 mph 69% 0.00 in CLR
02:30 46.1 °F 37.2 °F 30.25 in North 1.0 mph 3.0 mph 71% 0.00 in CLR
02:40 45.9 °F 37.0 °F 30.25 in North 1.0 mph 3.0 mph 71% 0.00 in CLR
02:50 45.9 °F 37.0 °F 30.26 in Calm   5.0 mph 71% 0.00 in CLR
03:00 45.6 °F 36.7 °F 30.26 in Calm   4.0 mph 71% 0.00 in CLR
03:10 45.2 °F 36.7 °F 30.26 in Calm   2.0 mph 72% 0.00 in CLR
03:20 45.1 °F 36.6 °F 30.27 in Calm   1.0 mph 72% 0.00 in CLR
03:30 44.9 °F 36.4 °F 30.27 in North 1.0 mph 3.0 mph 72% 0.00 in CLR
03:40 44.5 °F 36.7 °F 30.27 in Calm   2.0 mph 74% 0.00 in CLR
03:50 44.4 °F 36.6 °F 30.26 in NW 1.0 mph 3.0 mph 74% 0.00 in CLR
04:00 44.3 °F 36.2 °F 30.27 in Calm   2.0 mph 73% 0.00 in CLR
04:10 44.7 °F 36.6 °F 30.27 in NNW 1.0 mph 6.0 mph 73% 0.00 in CLR
04:20 44.7 °F 36.6 °F 30.27 in NNW 1.0 mph 5.0 mph 73% 0.00 in CLR
04:30 44.5 °F 36.4 °F 30.28 in Calm   2.0 mph 73% 0.00 in CLR
04:40 44.3 °F 36.2 °F 30.28 in NW 2.0 mph 5.0 mph 73% 0.00 in CLR
04:50 44.6 °F 36.1 °F 30.29 in Calm   5.0 mph 72% 0.00 in CLR
05:00 44.3 °F 36.2 °F 30.29 in Calm   3.0 mph 73% 0.00 in CLR
05:10 43.2 °F 36.2 °F 30.30 in Calm   1.0 mph 76% 0.00 in CLR
05:20 42.5 °F 35.8 °F 30.30 in Calm   1.0 mph 77% 0.00 in CLR
05:30 43.1 °F 36.4 °F 30.31 in Calm   2.0 mph 77% 0.00 in CLR
05:40 42.7 °F 36.0 °F 30.31 in Calm   3.0 mph 77% 0.00 in CLR
05:50 42.5 °F 36.1 °F 30.31 in Calm   4.0 mph 78% 0.00 in CLR
06:00 42.6 °F 36.2 °F 30.31 in Calm   4.0 mph 78% 0.00 in CLR
06:10 42.6 °F 36.2 °F 30.32 in Calm   1.0 mph 78% 0.00 in CLR
06:20 42.1 °F 36.0 °F 30.32 in Calm   1.0 mph 79% 0.00 in CLR
06:30 41.2 °F 35.8 °F 30.31 in Calm     81% 0.00 in CLR
06:40 40.7 °F 35.9 °F 30.32 in Calm   3.0 mph 83% 0.00 in CLR
06:50 41.1 °F 36.3 °F 30.32 in Calm   3.0 mph 83% 0.00 in CLR
07:00 41.3 °F 36.2 °F 30.32 in Calm   3.0 mph 82% 0.00 in CLR
07:10 41.4 °F 36.3 °F 30.33 in ESE 1.0 mph 4.0 mph 82% 0.00 in CLR
07:20 41.7 °F 36.3 °F 30.33 in Calm   3.0 mph 81% 0.00 in CLR
07:30 41.8 °F 36.4 °F 30.33 in Calm   2.0 mph 81% 0.00 in CLR
07:40 41.9 °F 36.5 °F 30.33 in Calm   4.0 mph 81% 0.00 in CLR
07:50 41.8 °F 36.4 °F 30.34 in Calm   2.0 mph 81% 0.00 in CLR
08:00 41.9 °F 36.5 °F 30.34 in Calm   4.0 mph 81% 0.00 in CLR
08:10 42.0 °F 36.6 °F 30.34 in Calm   2.0 mph 81% 0.00 in CLR
08:20 42.1 °F 36.7 °F 30.34 in Calm   3.0 mph 81% 0.00 in CLR
08:30 42.2 °F 36.8 °F 30.35 in Calm   1.0 mph 81% 0.00 in CLR
08:40 42.4 °F 37.0 °F 30.35 in Calm   2.0 mph 81% 0.00 in CLR
08:50 42.7 °F 37.0 °F 30.36 in Calm   4.0 mph 80% 0.00 in CLR
09:00 42.9 °F 36.8 °F 30.36 in Calm   2.0 mph 79% 0.00 in CLR
09:10 43.2 °F 36.8 °F 30.36 in Calm   4.0 mph 78% 0.00 in CLR
09:20 43.6 °F 36.5 °F 30.36 in NNW 1.0 mph 4.0 mph 76% 0.00 in CLR
09:30 44.1 °F 36.0 °F 30.37 in ENE 1.0 mph 5.0 mph 73% 0.00 in CLR
09:40 44.5 °F 35.7 °F 30.37 in North 1.0 mph 6.0 mph 71% 0.00 in CLR
09:50 45.3 °F 35.7 °F 30.37 in NNW 2.0 mph 4.0 mph 69% 0.00 in CLR
10:00 46.0 °F 35.7 °F 30.37 in NNE 1.0 mph 6.0 mph 67% 0.00 in CLR
10:10 46.4 °F 35.3 °F 30.37 in NNW 1.0 mph 7.0 mph 65% 0.00 in CLR
10:20 46.8 °F 35.3 °F 30.36 in North 2.0 mph 6.0 mph 64% 0.00 in CLR
10:30 47.3 °F 35.0 °F 30.36 in NNE 1.0 mph 8.0 mph 62% 0.00 in CLR
10:40 47.7 °F 34.9 °F 30.37 in Calm   7.0 mph 61% 0.00 in CLR
10:50 48.1 °F 34.8 °F 30.36 in Calm   5.0 mph 60% 0.00 in CLR
11:00 48.9 °F 34.8 °F 30.36 in NNE 1.0 mph 3.0 mph 58% 0.00 in CLR
11:10 49.3 °F 34.3 °F 30.36 in NNW 1.0 mph 4.0 mph 56% 0.00 in CLR
11:30 50.3 °F 34.7 °F 30.36 in Calm   5.0 mph 55% 0.00 in CLR
11:40 51.0 °F 33.5 °F 30.36 in North 2.0 mph 5.0 mph 51% 0.00 in CLR
11:50 51.0 °F 33.0 °F 30.35 in NW 2.0 mph 5.0 mph 50% 0.00 in CLR
12:00 51.3 °F 33.8 °F 30.35 in Calm   5.0 mph 51% 0.00 in CLR
12:10 51.8 °F 32.7 °F 30.35 in NNW 2.0 mph 5.0 mph 48% 0.00 in CLR
12:20 52.5 °F 33.9 °F 30.35 in NNW 1.0 mph 6.0 mph 49% 0.00 in CLR
12:30 53.0 °F 33.8 °F 30.34 in NNW 2.0 mph 5.0 mph 48% 0.00 in CLR
12:40 53.4 °F 33.1 °F 30.34 in Calm   4.0 mph 46% 0.00 in CLR
12:50 54.2 °F 34.4 °F 30.33 in Calm   6.0 mph 47% 0.00 in CLR
13:00 54.0 °F 32.6 °F 30.33 in Calm   5.0 mph 44% 0.00 in CLR
13:10 54.0 °F 34.8 °F 30.33 in WNW 2.0 mph 5.0 mph 48% 0.00 in CLR
13:20 53.9 °F 36.2 °F 30.32 in Calm   3.0 mph 51% 0.00 in CLR
13:30 53.8 °F 35.6 °F 30.33 in Calm   4.0 mph 50% 0.00 in CLR
13:40 54.3 °F 36.0 °F 30.32 in Calm   2.0 mph 50% 0.00 in CLR
13:50 54.0 °F 35.2 °F 30.32 in Calm   4.0 mph 49% 0.00 in CLR
14:00 55.3 °F 35.4 °F 30.32 in SSW 1.0 mph 3.0 mph 47% 0.00 in CLR
14:10 54.7 °F 35.9 °F 30.32 in West 1.0 mph 4.0 mph 49% 0.00 in CLR
14:20 54.2 °F 35.5 °F 30.31 in Calm   3.0 mph 49% 0.00 in CLR
14:30 54.2 °F 35.5 °F 30.31 in Calm   3.0 mph 49% 0.00 in CLR
14:40 55.1 °F 35.7 °F 30.31 in Calm   3.0 mph 48% 0.00 in CLR
14:50 55.2 °F 35.3 °F 30.31 in SW 1.0 mph 6.0 mph 47% 0.00 in CLR
15:00 55.2 °F 36.3 °F 30.32 in SE 2.0 mph 7.0 mph 49% 0.00 in CLR
15:10 55.0 °F 36.7 °F 30.31 in Calm   5.0 mph 50% 0.00 in CLR
15:20 54.7 °F 36.9 °F 30.32 in WSW 1.0 mph 5.0 mph 51% 0.00 in CLR
15:30 54.4 °F 37.6 °F 30.32 in Calm   5.0 mph 53% 0.00 in CLR
15:40 54.3 °F 38.0 °F 30.32 in NW 1.0 mph 3.0 mph 54% 0.00 in CLR
15:50 54.2 °F 38.4 °F 30.32 in Calm   7.0 mph 55% 0.00 in CLR
16:00 54.2 °F 37.9 °F 30.32 in SW 3.0 mph 5.0 mph 54% 0.00 in CLR
16:10 53.5 °F 38.6 °F 30.32 in South 1.0 mph 5.0 mph 57% 0.00 in CLR
16:20 53.4 °F 38.5 °F 30.32 in Calm   3.0 mph 57% 0.00 in CLR
16:30 53.3 °F 38.9 °F 30.33 in SW 3.0 mph 6.0 mph 58% 0.00 in CLR
16:40 53.8 °F 38.9 °F 30.33 in SW 2.0 mph 4.0 mph 57% 0.00 in CLR
16:50 53.2 °F 38.8 °F 30.33 in Calm   7.0 mph 58% 0.00 in CLR
17:00 53.4 °F 39.4 °F 30.33 in Calm   2.0 mph 59% 0.00 in CLR
17:10 52.9 °F 39.0 °F 30.33 in Calm   3.0 mph 59% 0.00 in CLR
17:20 52.2 °F 38.7 °F 30.33 in Calm   2.0 mph 60% 0.00 in CLR
17:30 51.3 °F 38.7 °F 30.33 in Calm   2.0 mph 62% 0.00 in CLR
17:40 50.4 °F 38.7 °F 30.33 in Calm   1.0 mph 64% 0.00 in CLR
17:50 49.6 °F 38.7 °F 30.33 in Calm   1.0 mph 66% 0.00 in CLR
18:00 48.9 °F 38.8 °F 30.32 in Calm   1.0 mph 68% 0.00 in CLR
18:10 48.3 °F 39.0 °F 30.33 in Calm   1.0 mph 70% 0.00 in CLR
18:20 47.8 °F 39.2 °F 30.32 in Calm   1.0 mph 72% 0.00 in CLR
18:30 47.7 °F 39.5 °F 30.33 in Calm     73% 0.00 in CLR
18:40 47.6 °F 39.7 °F 30.33 in Calm   1.0 mph 74% 0.00 in CLR
18:50 47.4 °F 39.5 °F 30.33 in Calm   1.0 mph 74% 0.00 in CLR
19:00 47.2 °F 39.7 °F 30.33 in Calm   1.0 mph 75% 0.00 in CLR
19:10 46.7 °F 39.6 °F 30.33 in Calm     76% 0.00 in CLR
19:20 46.6 °F 39.8 °F 30.32 in Calm     77% 0.00 in CLR
19:30 46.3 °F 39.5 °F 30.32 in Calm     77% 0.00 in CLR
19:40 46.2 °F 39.7 °F 30.33 in Calm   2.0 mph 78% 0.00 in CLR
19:50 46.0 °F 39.9 °F 30.33 in Calm   1.0 mph 79% 0.00 in CLR
20:00 46.1 °F 39.9 °F 30.33 in Calm     79% 0.00 in CLR
20:10 46.4 °F 40.6 °F 30.33 in Calm   1.0 mph 80% 0.00 in CLR
20:20 46.7 °F 40.5 °F 30.33 in Calm   1.0 mph 79% 0.00 in CLR
20:30 46.5 °F 40.3 °F 30.34 in Calm   1.0 mph 79% 0.00 in CLR
20:40 45.9 °F 40.4 °F 30.35 in Calm     81% 0.00 in CLR
20:50 45.8 °F 40.6 °F 30.34 in Calm     82% 0.00 in CLR
21:00 45.9 °F 41.0 °F 30.34 in Calm   1.0 mph 83% 0.00 in CLR
21:10 45.4 °F 40.8 °F 30.34 in Calm     84% 0.00 in CLR
21:20 45.6 °F 41.0 °F 30.34 in Calm     84% 0.00 in CLR
21:30 45.9 °F 41.6 °F 30.33 in Calm   1.0 mph 85% 0.00 in CLR
21:40 46.0 °F 41.7 °F 30.33 in Calm   1.0 mph 85% 0.00 in CLR
21:50 46.3 °F 41.7 °F 30.31 in North 1.0 mph 1.0 mph 84% 0.00 in CLR
22:00 46.4 °F 41.8 °F 30.31 in Calm   1.0 mph 84% 0.00 in CLR
22:10 46.6 °F 41.7 °F 30.31 in Calm   2.0 mph 83% 0.00 in FEW
22:20 46.6 °F 41.7 °F 30.33 in Calm     83% 0.00 in FEW
22:30 46.6 °F 42.0 °F 30.34 in Calm     84% 0.00 in FEW
22:40 46.8 °F 42.2 °F 30.33 in Calm   1.0 mph 84% 0.00 in FEW
22:50 46.7 °F 42.4 °F 30.34 in Calm     85% 0.00 in FEW
23:00 46.6 °F 42.3 °F 30.35 in Calm     85% 0.00 in FEW
23:10 47.1 °F 43.1 °F 30.34 in Calm   1.0 mph 86% 0.00 in BKN
23:20 47.2 °F 42.9 °F 30.35 in Calm     85% 0.00 in BKN
23:40 48.3 °F 44.3 °F 30.35 in Calm   2.0 mph 86% 0.00 in BKN
23:50 48.8 °F 44.2 °F 30.34 in North 1.0 mph 3.0 mph 84% 0.00 in BKN
TarryTown NY Weather
Compliments of Weather Underground - 1.75 mb